KSLI

Los Alamitos AAF Airport

Los Alamitos, California, USA
METAR KSLI 181958Z 16005KT 7SM BKN032 BKN250 17/14 A3023 RMK AO2A SLP240 T01710136
Observed Flight Rules
Jan-18 @ 19:58 UTC (28 minutes ago) Visual Flight Rules
Wind Visibility Clouds
160° at 5 knots 7 miles
  • Broken at 3,200' AGL
  • Broken at 25,000' AGL
Temperatures Readings
Current 17°C / 63°F
Dewpoint 14°C / 57°F
Humidity 83%
Altimeter 30.23" Hg
Pressure 1024 hPa
Elevation 11
METAR KSLI 181958Z 16005KT 7SM BKN032 BKN250 17/14 A3023 RMK AO2A SLP240 T01710136
Observed Flight Rules
Jan-18 @ 19:58 UTC
(28 minutes ago)
VFR
Wind Visibility
160° at 5 knots 7 miles
Clouds
  • Broken at 3,200' AGL
  • Broken at 25,000' AGL
Temperature Dewpoint
17°C / 63°F 14°C / 57°F
Humidity Altimeter Pressure
83% 30.23" Hg 1024 hPa